Schedule Details


Flight Number: CTN321
Departure: Ruzyne (LKPR) at 10:40
Arrival: Franjo Tudman (LDZA) at 12:00
Route: VOZ Z21 PISAM DCT MUREG DCT PETOV

Weather Information
LKPR 172300Z 13008KT CAVOK 19/12 Q1017 NOSIG
LDZA 172300Z 00000KT CAVOK 18/15 Q1017 NOSIG
Schedule Frequency

Route Map